Terminal Aerodrome Forecast
Issued by NWS

Home | Current Version | Previous Version | Graphics & Text | Print | Product List | Glossary On
Versions: 1 2 3 4 5 6 7 8 9 10 11 12 13 14 15 16 17 18
000
FTUS41 KCLE 191700
TAFFDY
TAF
KFDY 191720Z 1918/2018 17020G30KT P6SM -SN OVC060
     FM192100 22018G26KT P6SM SCT025 OVC050
     FM192300 23018G26KT 5SM -SN OVC025
     FM200400 25016G24KT P6SM SCT025 OVC045
     FM201500 24014KT P6SM OVC025=

USA.gov is the U.S. government's official web portal to all federal, state and local government web resources and services.